Terminal Aerodrome Forecast
Issued by NWS

Home | Current Version | Previous Version | Text Only | Print | Product List | Glossary On
Versions: 1 2 3 4 5 6 7 8 9 10 11 12 13 14 15
000
FTAK31 PAJN 291140
TAFAGY
TAF
PAGY 291140Z 2912/3012 VRB03KT P6SM BKN060
     FM291600 03004KT P6SM SCT080
     FM292000 04008KT P6SM FEW200
     FM300300 VRB03KT P6SM FEW200
      AMD LTD TO CLD VIS AND WIND=

USA.gov is the U.S. government's official web portal to all federal, state and local government web resources and services.